Time;durP1;ratioP1;P1;durP2;ratioP2;P2;SDS_P1;SDS_P2;PMS_P1;PMS_P2;Temp;Humidity;BMP_temperature;BMP_pressure;BME280_temperature;BME280_humidity;BME280_pressure;Samples;Min_cycle;Max_cycle;Signal;HPM_P1;HPM_P2
2022/04/01 00:01:48;;;;;;;6.93;4.47;;;8.00;73.00;;;3.74;87.81;93530.91;5016219;28;20030;-49
2022/04/01 00:04:20;;;;;;;6.28;4.50;;;8.00;73.80;;;3.73;87.82;93522.25;5016202;28;20033;-49
2022/04/01 00:06:50;;;;;;;7.00;4.88;;;8.00;73.10;;;3.74;87.81;93523.03;5049364;28;20079;-49
2022/04/01 00:09:19;;;;;;;8.18;5.25;;;7.90;73.80;;;3.75;88.31;93525.38;5049104;28;20037;-52
2022/04/01 00:11:48;;;;;;;7.43;5.30;;;8.00;73.20;;;3.76;87.89;93531.41;5049139;28;20104;-48
2022/04/01 00:14:14;;;;;;;7.65;5.18;;;7.90;73.20;;;3.72;88.08;93534.59;5033682;28;20053;-50
2022/04/01 00:16:46;;;;;;;7.22;4.88;;;7.90;73.10;;;3.70;88.23;93526.19;5049267;28;20076;-48
2022/04/01 00:19:20;;;;;;;7.85;5.50;;;7.90;73.20;;;3.64;88.31;93527.28;5035447;28;20557;-55
2022/04/01 00:21:47;;;;;;;8.80;5.70;;;7.90;73.20;;;3.68;88.53;93525.66;4997872;28;20034;-51
2022/04/01 00:24:18;;;;;;;9.57;5.65;;;7.90;73.20;;;3.71;88.30;93532.25;5013756;28;20064;-52
2022/04/01 00:26:50;;;;;;;9.38;5.80;;;7.90;73.20;;;3.68;88.26;93527.53;5013660;28;20036;-54
2022/04/01 00:29:20;;;;;;;9.90;5.57;;;7.90;73.20;;;3.65;88.15;93543.84;5013688;28;20037;-51
2022/04/01 00:31:58;;;;;;;8.38;5.28;;;7.90;73.30;;;3.63;88.37;93530.94;4996154;28;20103;-51
2022/04/01 00:34:29;;;;;;;9.70;5.75;;;7.90;73.30;;;3.65;88.78;93528.84;4996834;28;20077;-51
2022/04/01 00:36:58;;;;;;;8.35;5.50;;;7.90;73.30;;;3.63;88.48;93532.81;5013722;28;20428;-51
2022/04/01 00:39:29;;;;;;;9.73;5.93;;;7.90;73.30;;;3.63;88.63;93538.84;5008892;28;20393;-53
2022/04/01 00:42:01;;;;;;;9.95;5.97;;;7.90;73.30;;;3.65;88.79;93533.31;4996238;28;20033;-52
2022/04/01 00:44:30;;;;;;;8.20;5.82;;;7.90;73.30;;;3.65;88.59;93528.84;5013438;28;20050;-51
2022/04/01 00:46:59;;;;;;;8.85;6.13;;;7.80;73.30;;;3.66;88.48;93530.41;5003896;28;20030;-51
2022/04/01 00:49:27;;;;;;;9.57;6.35;;;7.90;73.30;;;3.63;88.37;93527.53;4995699;28;20037;-53
2022/04/01 00:52:03;;;;;;;8.70;5.95;;;7.90;73.30;;;3.61;89.12;93527.81;4987141;28;20081;-55
2022/04/01 00:54:29;;;;;;;10.20;6.80;;;7.90;73.40;;;3.63;89.15;93525.69;4995984;28;20526;-51
2022/04/01 00:56:55;;;;;;;10.13;5.93;;;7.90;73.40;;;3.61;88.98;93524.41;5013197;28;20065;-54
2022/04/01 00:59:22;;;;;;;11.15;6.40;;;7.90;73.40;;;3.65;88.86;93525.44;4995832;28;20022;-51
2022/04/01 01:01:49;;;;;;;11.27;6.90;;;7.90;73.40;;;3.64;89.19;93522.00;5013143;28;20428;-54
2022/04/01 01:04:20;;;;;;;12.00;7.22;;;7.90;73.80;;;3.61;88.91;93524.41;4979868;28;20070;-55
2022/04/01 01:06:53;;;;;;;12.23;7.28;;;7.90;73.40;;;3.61;89.09;93524.41;4995509;28;20037;-51
2022/04/01 01:09:19;;;;;;;12.73;6.85;;;7.90;73.50;;;3.64;88.79;93521.22;5013034;28;20032;-51
2022/04/01 01:11:50;;;;;;;11.93;6.95;;;7.90;73.40;;;3.62;89.01;93536.50;5008124;28;20504;-52
2022/04/01 01:14:28;;;;;;;12.88;7.35;;;7.90;73.40;;;3.62;89.38;93529.38;5012925;28;20473;-51
2022/04/01 01:17:03;;;;;;;13.43;7.40;;;7.90;73.40;;;3.61;89.12;93519.91;4995238;28;20029;-50
2022/04/01 01:19:32;;;;;;;14.73;8.38;;;7.90;73.40;;;3.59;89.00;93524.66;5032083;28;20454;-50
2022/04/01 01:21:59;;;;;;;17.15;8.48;;;7.90;73.30;;;3.59;88.89;93521.25;5015400;28;20026;-51
2022/04/01 01:24:39;;;;;;;16.98;8.68;;;7.90;73.30;;;3.59;88.91;93521.25;5048025;28;20030;-52
2022/04/01 01:27:08;;;;;;;16.40;8.88;;;7.90;73.30;;;3.55;89.39;93513.09;5039737;28;20215;-52
2022/04/01 01:29:38;;;;;;;17.42;9.05;;;7.80;73.30;;;3.55;89.33;93522.84;5010416;28;20054;-51
2022/04/01 01:32:10;;;;;;;18.98;9.50;;;7.90;73.40;;;3.54;89.45;93516.00;5025126;28;20096;-50
2022/04/01 01:34:39;;;;;;;;;;;7.90;73.40;;;3.52;89.57;93513.66;4995172;28;20029;-51
2022/04/01 01:37:04;;;;;;;16.25;8.82;;;7.80;73.20;;;3.47;89.46;93519.69;5029697;28;19916;-52
2022/04/01 01:39:37;;;;;;;17.35;9.15;;;7.90;73.30;;;3.46;89.52;93518.13;5031665;28;20026;-52
2022/04/01 01:42:03;;;;;;;16.58;9.35;;;7.80;73.20;;;3.50;89.78;93517.59;5047042;28;20048;-52
2022/04/01 01:44:35;;;;;;;18.60;9.45;;;7.80;73.20;;;3.55;89.18;93515.75;5031327;28;20034;-50
2022/04/01 01:47:01;;;;;;;19.33;9.38;;;7.80;73.30;;;3.52;89.32;93510.22;5024422;28;20473;-49
2022/04/01 01:49:27;;;;;;;20.70;9.50;;;7.80;73.30;;;3.51;89.53;93504.19;4994234;28;20080;-50
2022/04/01 01:54:52;;;;;;;21.33;10.05;;;7.80;73.30;;;3.50;89.63;93509.69;5011823;28;20544;-49
2022/04/01 01:57:27;;;;;;;22.73;10.43;;;7.80;73.30;;;3.50;89.29;93504.44;5011351;28;20030;-50
2022/04/01 01:59:54;;;;;;;19.73;10.32;;;7.80;73.40;;;3.50;89.51;93499.94;5011591;28;20478;-50
2022/04/01 02:02:21;;;;;;;20.77;10.82;;;7.80;73.40;;;3.51;89.55;93506.00;5024587;28;20068;-50
2022/04/01 02:05:07;;;;;;;21.02;10.25;;;7.80;73.40;;;3.52;89.51;93508.38;5031295;28;20419;-50
2022/04/01 02:07:33;;;;;;;19.25;10.38;;;7.80;73.50;;;3.53;89.70;93501.25;5031095;28;20634;-50
2022/04/01 02:10:05;;;;;;;25.20;11.05;;;7.80;73.50;;;3.52;89.33;93505.75;5013613;28;20037;-50
2022/04/01 02:12:31;;;;;;;22.67;11.25;;;7.80;73.50;;;3.54;89.45;93495.75;5031480;28;20387;-50
2022/04/01 02:14:57;;;;;;;21.60;10.93;;;7.80;73.50;;;3.52;89.47;93500.47;5031179;28;20030;-52
2022/04/01 02:17:22;;;;;;;25.20;11.73;;;7.80;73.40;;;3.52;89.54;93492.59;5012950;28;20036;-52
2022/04/01 02:19:51;;;;;;;22.50;11.68;;;7.80;73.50;;;3.52;89.66;93489.94;5031027;28;20623;-52
